Ryuoh Maru No.2 — JM5900 — position and weather

sailwx.info

Track history (hours):
 
Tides and Currents Weather Stations Pressure Air Temp Water Temp Dewpoint Dewpoint Depression Visibility Wind Speed Wind Dir Waves Ship Positions

Ryuoh Maru No.2

Last reported at 2014-Oct-19 19:23 UTC. Time now 2014-Oct-23 02:28 UTC.
Position N 34°58' E 139°43'.

Length 80 m; draft 5.4 m.

Type: Cargo ship. MMSI: 431401218.

Date/timePositionNaut miles runAvg speedWind from/ knotsBaromVisibWave heightAir tempDewpointWater temp
2014-Oct-19 19:23N 34°58' E 139°43'1310.5
2014-Oct-19 18:08N 35°11' E 139°46'610.3
2014-Oct-19 17:33N 35°17' E 139°45'9 8.5
2014-Oct-19 16:33N 35°25' E 139°46'5 5.3
2014-Oct-19 15:33N 35°22' E 139°51'0 0.0
2014-Oct-19 14:33N 35°22' E 139°51'0 0.0
2014-Oct-19 13:33N 35°22' E 139°51'0 0.0
2014-Oct-19 12:33N 35°22' E 139°51'0 0.0
2014-Oct-19 11:33N 35°22' E 139°51'0 0.0
2014-Oct-19 10:33N 35°22' E 139°51'0 0.0
2014-Oct-19 09:33N 35°22' E 139°51'0 0.0
2014-Oct-19 08:33N 35°22' E 139°51'0 0.0
2014-Oct-19 07:33N 35°22' E 139°51'0 0.0
2014-Oct-19 06:33N 35°22' E 139°51'0 0.0
2014-Oct-19 05:33N 35°22' E 139°51'0 0.0
2014-Oct-19 04:33N 35°22' E 139°51'0 0.0
2014-Oct-19 03:33N 35°22' E 139°51'0 0.0
2014-Oct-19 02:33N 35°22' E 139°51'0 0.0
2014-Oct-19 01:33N 35°22' E 139°51'1 1.3
2014-Oct-19 00:32N 35°22' E 139°49'0 0.0
2014-Oct-18 23:32N 35°22' E 139°49'0 0.0
2014-Oct-18 22:29N 35°22' E 139°49'0 0.0
2014-Oct-18 21:32N 35°22' E 139°49'0 0.0
2014-Oct-18 20:32N 35°22' E 139°49'0 0.0
2014-Oct-18 19:32N 35°22' E 139°49'0 0.0
2014-Oct-18 18:32N 35°22' E 139°49'0 0.0
2014-Oct-18 17:32N 35°22' E 139°49'0 0.0
2014-Oct-18 16:32N 35°22' E 139°49'0 0.0
2014-Oct-18 15:32N 35°22' E 139°49'0 0.0
2014-Oct-18 14:32N 35°22' E 139°49'0 0.0
2014-Oct-18 13:32N 35°22' E 139°49'0 0.0
2014-Oct-18 12:29N 35°22' E 139°49'0 0.0
2014-Oct-18 11:29N 35°22' E 139°49'0 0.0
2014-Oct-18 10:32N 35°22' E 139°49'3 3.4
2014-Oct-18 09:34N 35°22' E 139°45'10 9.3
2014-Oct-18 08:32N 35°12' E 139°47'  
Track history (hours):
 
Tides and Currents Weather Stations Pressure Air Temp Water Temp Dewpoint Dewpoint Depression Visibility Wind Speed Wind Dir Waves Ship Positions

Ryuoh Maru No.2

Last reported at 2014-Oct-19 19:23 UTC. Time now 2014-Oct-23 02:28 UTC.
Position N 34°58' E 139°43'.

Length 80 m; draft 5.4 m.

Type: Cargo ship. MMSI: 431401218.

Date/timePositionNaut miles runAvg speedWind from/ knotsBaromVisibWave heightAir tempDewpointWater temp
2014-Oct-19 19:23N 34°58' E 139°43'1310.5
2014-Oct-19 18:08N 35°11' E 139°46'610.3
2014-Oct-19 17:33N 35°17' E 139°45'9 8.5
2014-Oct-19 16:33N 35°25' E 139°46'5 5.3
2014-Oct-19 15:33N 35°22' E 139°51'0 0.0
2014-Oct-19 14:33N 35°22' E 139°51'0 0.0
2014-Oct-19 13:33N 35°22' E 139°51'0 0.0
2014-Oct-19 12:33N 35°22' E 139°51'0 0.0
2014-Oct-19 11:33N 35°22' E 139°51'0 0.0
2014-Oct-19 10:33N 35°22' E 139°51'0 0.0
2014-Oct-19 09:33N 35°22' E 139°51'0 0.0
2014-Oct-19 08:33N 35°22' E 139°51'0 0.0
2014-Oct-19 07:33N 35°22' E 139°51'0 0.0
2014-Oct-19 06:33N 35°22' E 139°51'0 0.0
2014-Oct-19 05:33N 35°22' E 139°51'0 0.0
2014-Oct-19 04:33N 35°22' E 139°51'0 0.0
2014-Oct-19 03:33N 35°22' E 139°51'0 0.0
2014-Oct-19 02:33N 35°22' E 139°51'0 0.0
2014-Oct-19 01:33N 35°22' E 139°51'1 1.3
2014-Oct-19 00:32N 35°22' E 139°49'0 0.0
2014-Oct-18 23:32N 35°22' E 139°49'0 0.0
2014-Oct-18 22:29N 35°22' E 139°49'0 0.0
2014-Oct-18 21:32N 35°22' E 139°49'0 0.0
2014-Oct-18 20:32N 35°22' E 139°49'0 0.0
2014-Oct-18 19:32N 35°22' E 139°49'0 0.0
2014-Oct-18 18:32N 35°22' E 139°49'0 0.0
2014-Oct-18 17:32N 35°22' E 139°49'0 0.0
2014-Oct-18 16:32N 35°22' E 139°49'0 0.0
2014-Oct-18 15:32N 35°22' E 139°49'0 0.0
2014-Oct-18 14:32N 35°22' E 139°49'0 0.0
2014-Oct-18 13:32N 35°22' E 139°49'0 0.0
2014-Oct-18 12:29N 35°22' E 139°49'0 0.0
2014-Oct-18 11:29N 35°22' E 139°49'0 0.0
2014-Oct-18 10:32N 35°22' E 139°49'3 3.4
2014-Oct-18 09:34N 35°22' E 139°45'10 9.3
2014-Oct-18 08:32N 35°12' E 139°47'  

Dump ship's entire track history